Impacts TAF Board INFO
FOR SITUATIONAL AWARENESS. NOT TO BE USED FOR FLIGHT PLANNING PURPOSES.
IDs:

KMCO - Orlando Intl, FL, US

Issued at 2339 UTC 25 Feb 2017
Updated at 0105 UTC 26 Feb 2017
Potential Impact None Slight Moderate High
Time0053Z 26/02Z 26/03Z 26/04Z 26/05Z 26/06Z 26/07Z 26/08Z 26/09Z 26/10Z 26/11Z 26/12Z 26/13Z 26/14Z
Type OBS PRVL PRVL PRVL PRVL PRVL PRVL PRVL PRVL PRVL PRVL PRVL PRVL PRVL
VIS 10 >6 >6 >6 >6 >6 >6 >6 >6 >6 >6 >6 >6 >6
CIG -- -- -- -- -- -- -- -- -- -- -- -- -- --
Cover CLR FEW FEW FEW FEW FEW SKC SKC SKC SKC SKC SKC SKC SKC
FltCat VFR VFR VFR VFR VFR VFR VFR VFR VFR VFR VFR VFR VFR VFR
WX -- -- -- -- -- -- -- -- -- -- -- -- -- --
WDir 270 270 270 270 270 270 340 340 340 340 340 340 340 340
WSpd 6 8 8 8 8 8 9 9 9 9 9 9 9 9
WGst -- -- -- -- -- -- -- -- -- -- -- -- -- --

Raw TAF
KMCO 252339Z 2600/2624 27008KT P6SM FEW060
  FM260700 34009KT P6SM SKC
  FM261500 02011KT P6SM SKC


Raw METAR
KMCO 260053Z 27006KT 10SM CLR 22/14 A2993 RMK AO2 SLP133 T02220144
KMCO 252353Z 29011KT 10SM CLR 24/14 A2991 RMK AO2 SLP126 T02440144 10278 20239 53012
KMCO 252253Z 27008KT 10SM FEW060 26/13 A2989 RMK AO2 SLP120 T02610128

METAR Board
Radar Display
Forecast Discussion

FOR SITUATIONAL AWARENESS. NOT TO BE USED FOR FLIGHT PLANNING PURPOSES.

Page loaded:  01:05 UTC  |   05:05 PM Pacific  |   06:05 PM Mountain  |   07:05 PM Central  |   08:05 PM Eastern

 

ADVISORIES

FORECASTS

FORECASTS

OBSERVATIONS

USER TOOLS

ABOUT US